Current | Forecast
Updated: 9:30 PM CEST on October 19, 2017
Observed at Melilla, Morocco
Temperature 21°C
Humidity 78%
Dew Point 17°C
Wind West at 32 km/h
Wind Gust 52 km/h
Pressure 1016 hPa (Steady)
Conditions Clear
Visibility -
UV N/A
Clouds
Yesterday's Maximum 29°C
Yesterday's Minimum 19°C approx.
Yesterday's Cooling Degree Days 10 approx.
Sunrise7:21 AM WEST
Sunset6:31 PM WEST
Moon Rise6:49 AM WEST
Moon Set6:44 PM WEST
Moon PhaseMoon Phase
New Moon
Raw METARMETAR GEML 191930Z AUTO 27017G28KT 230V320 CAVOK 21/17 Q1016


Monday
. High: 82° F.
Tuesday
. High: 80° F.
Wednesday
. High: 71° F.
Thursday
. High: 73° F.
Friday
. High: 73° F.
Saturday
. High: 75° F.
Sunday
. High: 80° F.
Monday
. High: 77° F.

Units: English | Metric

Find the Weather for any City, State or Zipcode, or Country:

U.S. State List | Severe Weather | Tropical Storms | Ski Conditions
United States | Canada | Central America | South America | Asia | Europe | Australia | Africa | Islands

Weather Underground

© Copyright 2017
The Weather Company, LLC